Coffeyville, Kansas
Current Conditions -  °F | °C
As of 8:52 AM on Thursday 30 Oct 2014 (Local Time) from KCFV Reporting Station
Clear Clear  
Wind Chill: 51°   Ceiling: Unl
Heat Index: 51°   Visibility: 10mi
Dew Point: 44°   Wind: 9mph
Humidity: 77%   Direction: 190°S
Pressure: 30.08"   Gusts: NA
Location:  37.03°N, 95.62°W
Report Text: KCFV 301352Z AUTO 19008KT 10SM CLR 11/07 A3008 RMK AO2 SLP186 T01060067
Loading
Personal Weather Stations






























Interactive Weather Map New forecast layout! Learn more

10-Day Weather Forecast

Advertisements
Track Severe Weather on mobile